Time;durP1;ratioP1;P1;durP2;ratioP2;P2;SDS_P1;SDS_P2;PMS_P1;PMS_P2;Temp;Humidity;BMP_temperature;BMP_pressure;BME280_temperature;BME280_humidity;BME280_pressure;Samples;Min_cycle;Max_cycle;Signal;HPM_P1;HPM_P2
2023/10/11 00:02:20;;;;;;;;;;;;;;;12.80;100.00;96132.91;10524187;28;1918;-72
2023/10/11 00:07:25;;;;;;;;;;;;;;;12.68;100.00;96136.75;10523608;28;1835;-71
2023/10/11 00:12:29;;;;;;;;;;;;;;;12.63;100.00;96139.47;10522625;28;1881;-70
2023/10/11 00:17:32;;;;;;;;;;;;;;;12.56;100.00;96138.16;10528143;28;1878;-73
2023/10/11 00:22:35;;;;;;;;;;;;;;;12.53;100.00;96138.69;10520872;28;2588;-71
2023/10/11 00:27:39;;;;;;;;;;;;;;;12.59;100.00;96142.97;10527323;28;1752;-73
2023/10/11 00:32:46;;;;;;;;;;;;;;;12.53;100.00;96134.09;10523520;28;1898;-73
2023/10/11 00:37:51;;;;;;;;;;;;;;;12.58;100.00;96133.28;10526895;28;1903;-73
2023/10/11 00:42:54;;;;;;;;;;;;;;;12.55;100.00;96123.88;10521514;28;4677;-74
2023/10/11 00:47:56;;;;;;;;;;;;;;;12.52;100.00;96126.28;10525482;28;1905;-73
2023/10/11 00:53:00;;;;;;;;;;;;;;;12.49;100.00;96118.78;10521607;28;2047;-72
2023/10/11 00:58:02;;;;;;;;;;;;;;;12.52;100.00;96110.13;10522539;28;1994;-73
2023/10/11 01:03:07;;;;;;;;;;;;;;;12.48;100.00;96109.06;10523233;28;1938;-73
2023/10/11 01:08:11;;;;;;;;;;;;;;;12.40;100.00;96108.53;10525064;28;1941;-72
2023/10/11 01:13:14;;;;;;;;;;;;;;;12.36;100.00;96112.09;10522422;28;1944;-72
2023/10/11 01:18:16;;;;;;;;;;;;;;;12.34;100.00;96106.97;10524293;28;1965;-72
2023/10/11 01:23:19;;;;;;;;;;;;;;;12.30;100.00;96095.13;10519472;28;2419;-72
2023/10/11 01:28:21;;;;;;;;;;;;;;;12.29;100.00;96098.09;10525943;28;1968;-73
2023/10/11 01:33:24;;;;;;;;;;;;;;;12.30;100.00;96092.44;10519516;28;1972;-72
2023/10/11 01:38:27;;;;;;;;;;;;;;;12.26;100.00;96101.34;10521614;28;1874;-72
2023/10/11 01:43:29;;;;;;;;;;;;;;;12.24;100.00;96093.53;10520417;28;4654;-71
2023/10/11 01:48:32;;;;;;;;;;;;;;;12.31;100.00;96102.13;10526175;28;1897;-72
2023/10/11 01:53:35;;;;;;;;;;;;;;;12.23;100.00;96096.50;10518624;28;1959;-71
2023/10/11 01:58:38;;;;;;;;;;;;;;;12.22;100.00;96095.72;10519397;28;1914;-72
2023/10/11 02:03:46;;;;;;;;;;;;;;;12.26;100.00;96094.06;10523913;28;1933;-71
2023/10/11 02:08:48;;;;;;;;;;;;;;;12.27;100.00;96087.56;10520405;28;2499;-74
2023/10/11 02:13:51;;;;;;;;;;;;;;;12.34;100.00;96071.94;10512903;28;1944;-71
2023/10/11 02:18:58;;;;;;;;;;;;;;;12.29;100.00;96077.34;10522810;28;2208;-72
2023/10/11 02:24:03;;;;;;;;;;;;;;;12.30;100.00;96083.53;10516789;28;2005;-72
2023/10/11 02:29:15;;;;;;;;;;;;;;;12.38;100.00;96083.75;10522143;28;1992;-72
2023/10/11 02:34:18;;;;;;;;;;;;;;;12.30;100.00;96089.75;10522861;28;1917;-75
2023/10/11 02:39:20;;;;;;;;;;;;;;;12.31;100.00;96087.84;10517585;28;1901;-73
2023/10/11 02:44:23;;;;;;;;;;;;;;;12.28;100.00;96077.59;10518896;28;1949;-73
2023/10/11 02:49:31;;;;;;;;;;;;;;;12.18;100.00;96081.16;10514269;28;1976;-73
2023/10/11 02:54:38;;;;;;;;;;;;;;;12.18;100.00;96075.78;10519752;28;2561;-73
2023/10/11 02:59:44;;;;;;;;;;;;;;;12.18;100.00;96075.78;10521434;28;2167;-73
2023/10/11 03:04:47;;;;;;;;;;;;;;;12.24;100.00;96071.97;10522187;28;1914;-72
2023/10/11 03:09:49;;;;;;;;;;;;;;;12.30;100.00;96067.38;10524314;28;1961;-73
2023/10/11 03:14:54;;;;;;;;;;;;;;;12.23;100.00;96062.28;10522711;28;2342;-73
2023/10/11 03:19:57;;;;;;;;;;;;;;;12.26;100.00;96069.81;10520456;28;1836;-71
2023/10/11 03:25:01;;;;;;;;;;;;;;;12.18;100.00;96065.00;10523722;28;2238;-73
2023/10/11 03:30:11;;;;;;;;;;;;;;;12.13;100.00;96073.09;10516405;28;1986;-75
2023/10/11 03:35:18;;;;;;;;;;;;;;;12.07;100.00;96082.28;10549967;27;2092;-74
2023/10/11 03:40:34;;;;;;;;;;;;;;;12.20;100.00;96076.28;10522101;28;4704;-72
2023/10/11 03:45:36;;;;;;;;;;;;;;;12.46;100.00;96074.28;10522239;28;1917;-71
2023/10/11 03:50:47;;;;;;;;;;;;;;;12.62;100.00;96073.13;10516153;28;1921;-72
2023/10/11 03:55:50;;;;;;;;;;;;;;;12.75;100.00;96062.81;10512759;28;2008;-72
2023/10/11 04:00:56;;;;;;;;;;;;;;;12.81;100.00;96053.59;10519741;28;1994;-71
2023/10/11 04:05:59;;;;;;;;;;;;;;;12.70;100.00;96050.94;10516017;28;2016;-71
2023/10/11 04:11:05;;;;;;;;;;;;;;;12.58;100.00;96046.97;10517850;28;1964;-72
2023/10/11 04:16:08;;;;;;;;;;;;;;;12.45;100.00;96051.91;10521992;28;2008;-71
2023/10/11 04:21:53;;;;;;;;;;;;;;;12.51;100.00;96054.56;10528997;28;1923;-72
2023/10/11 04:26:58;;;;;;;;;;;;;;;12.46;100.00;96063.50;10524063;28;1963;-72
2023/10/11 04:32:14;;;;;;;;;;;;;;;12.34;100.00;96049.53;10553798;27;2039;-72
2023/10/11 04:37:27;;;;;;;;;;;;;;;12.37;100.00;96055.19;10523711;28;1976;-73
2023/10/11 04:42:32;;;;;;;;;;;;;;;12.37;100.00;96057.88;10522671;28;4638;-74
2023/10/11 04:47:50;;;;;;;;;;;;;;;12.35;100.00;96062.75;10520596;28;1990;-73
2023/10/11 04:52:56;;;;;;;;;;;;;;;12.25;100.00;96062.81;10522696;28;1921;-73
2023/10/11 04:58:07;;;;;;;;;;;;;;;12.12;100.00;96068.78;10526538;28;1918;-73
2023/10/11 05:03:09;;;;;;;;;;;;;;;11.98;100.00;96071.28;10526004;28;1974;-73
2023/10/11 05:08:21;;;;;;;;;;;;;;;11.95;100.00;96069.13;10526933;28;2535;-71
2023/10/11 05:13:36;;;;;;;;;;;;;;;11.95;100.00;96062.91;10518731;28;1964;-72
2023/10/11 05:18:39;;;;;;;;;;;;;;;11.95;100.00;96073.69;10529298;28;1976;-73
2023/10/11 05:23:52;;;;;;;;;;;;;;;11.95;100.00;96076.38;10522349;28;1979;-73
2023/10/11 05:29:09;;;;;;;;;;;;;;;12.01;100.00;96083.38;10522582;28;1985;-73
2023/10/11 05:34:46;;;;;;;;;;;;;;;12.13;100.00;96078.47;10519778;28;1972;-73
2023/10/11 05:55:51;;;;;;;;;;;;;;;12.56;100.00;96086.91;10520241;28;2371;-73
2023/10/11 06:00:55;;;;;;;;;;;;;;;12.81;100.00;96075.97;10520397;28;1972;-73
2023/10/11 06:06:08;;;;;;;;;;;;;;;13.10;100.00;96083.31;10518901;28;1970;-73
2023/10/11 06:11:12;;;;;;;;;;;;;;;13.36;100.00;96087.47;10526196;28;1862;-73
2023/10/11 06:16:15;;;;;;;;;;;;;;;13.55;100.00;96084.03;10521066;28;1858;-73
2023/10/11 06:21:30;;;;;;;;;;;;;;;13.68;100.00;96083.41;10526365;28;1952;-73
2023/10/11 06:31:50;;;;;;;;;;;;;;;13.99;100.00;96090.06;10514832;28;1909;-71
2023/10/11 06:37:00;;;;;;;;;;;;;;;14.37;100.00;96100.19;10520018;28;1835;-75
2023/10/11 06:42:06;;;;;;;;;;;;;;;14.71;100.00;96092.75;10521882;28;4662;-72
2023/10/11 06:47:11;;;;;;;;;;;;;;;14.89;100.00;96091.13;10520903;28;1974;-74
2023/10/11 06:52:17;;;;;;;;;;;;;;;15.04;100.00;96088.19;10523813;28;1901;-73
2023/10/11 06:57:20;;;;;;;;;;;;;;;15.18;100.00;96090.16;10522769;28;2124;-74
2023/10/11 07:02:31;;;;;;;;;;;;;;;15.16;100.00;96095.06;10520738;28;1935;-71
2023/10/11 07:07:34;;;;;;;;;;;;;;;15.13;100.00;96097.25;10518113;28;1866;-72
2023/10/11 07:12:40;;;;;;;;;;;;;;;15.23;100.00;96096.28;10519158;28;1891;-76
2023/10/11 07:17:42;;;;;;;;;;;;;;;15.20;100.00;96090.66;10526263;28;1865;-75
2023/10/11 07:22:45;;;;;;;;;;;;;;;15.08;100.00;96099.25;10520930;28;1909;-77
2023/10/11 07:27:53;;;;;;;;;;;;;;;14.97;100.00;96090.47;10512445;28;2466;-77
2023/10/11 07:32:56;;;;;;;;;;;;;;;14.86;100.00;96103.34;10516211;28;2049;-77
2023/10/11 07:38:00;;;;;;;;;;;;;;;15.07;100.00;96101.13;10520041;28;1884;-77
2023/10/11 07:43:04;;;;;;;;;;;;;;;15.31;100.00;96101.03;10524398;28;4704;-77
2023/10/11 07:48:08;;;;;;;;;;;;;;;15.46;100.00;96100.00;10524820;28;1769;-75
2023/10/11 07:53:13;;;;;;;;;;;;;;;15.82;100.00;96091.25;10528919;28;1546;-78
2023/10/11 07:58:26;;;;;;;;;;;;;;;16.06;100.00;96091.09;10534230;28;1982;-76
2023/10/11 08:03:34;;;;;;;;;;;;;;;16.27;100.00;96083.34;10533795;28;1914;-75
2023/10/11 08:08:37;;;;;;;;;;;;;;;16.58;100.00;96081.63;10543560;28;1867;-76
2023/10/11 08:13:41;;;;;;;;;;;;;;;16.79;100.00;96086.63;10531811;28;2491;-75
2023/10/11 08:18:43;;;;;;;;;;;;;;;17.03;100.00;96089.88;10534289;28;1487;-77
2023/10/11 08:23:50;;;;;;;;;;;;;;;17.32;100.00;96075.09;10533616;28;1910;-76
2023/10/11 08:28:53;;;;;;;;;;;;;;;17.52;100.00;96082.75;10534135;28;2365;-76
2023/10/11 08:33:55;;;;;;;;;;;;;;;17.77;100.00;96079.41;10534280;28;1440;-75
2023/10/11 08:39:00;;;;;;;;;;;;;;;18.00;100.00;96071.19;10532609;28;1761;-75
2023/10/11 08:44:08;;;;;;;;;;;;;;;18.18;100.00;96063.91;10533250;28;4928;-76
2023/10/11 08:49:11;;;;;;;;;;;;;;;18.55;100.00;96054.41;10534630;28;1680;-75
2023/10/11 08:54:16;;;;;;;;;;;;;;;18.68;100.00;96053.47;10530412;28;1906;-77
2023/10/11 08:59:24;;;;;;;;;;;;;;;19.04;100.00;96055.13;10531866;28;1529;-75
2023/10/11 09:04:27;;;;;;;;;;;;;;;19.14;100.00;96050.13;10532345;28;1906;-75
2023/10/11 09:09:32;;;;;;;;;;;;;;;19.38;100.00;96029.75;10526892;28;2509;-75
2023/10/11 09:14:35;;;;;;;;;;;;;;;19.42;100.00;96038.91;10523823;28;1843;-77
2023/10/11 09:19:38;;;;;;;;;;;;;;;19.60;100.00;96047.88;10525343;28;1882;-75
2023/10/11 09:24:41;;;;;;;;;;;;;;;19.94;100.00;96042.31;10521997;28;1985;-76
2023/10/11 09:29:48;;;;;;;;;;;;;;;19.95;100.00;96035.72;10523648;28;1886;-75
2023/10/11 09:34:53;;;;;;;;;;;;;;;20.14;100.00;96034.53;10525068;28;1882;-76
2023/10/11 09:39:56;;;;;;;;;;;;;;;20.35;100.00;96037.28;10526298;28;1847;-77
2023/10/11 09:44:59;;;;;;;;;;;;;;;20.48;98.59;96037.09;10531305;28;4720;-75
2023/10/11 09:50:01;;;;;;;;;;;;;;;20.62;100.00;96041.53;10528711;28;1981;-75
2023/10/11 09:55:04;;;;;;;;;;;;;;;20.88;93.67;96038.63;10523715;28;2542;-77
2023/10/11 10:00:08;;;;;;;;;;;;;;;20.87;95.30;96043.28;10521100;28;1910;-77
2023/10/11 10:05:11;;;;;;;;;;;;;;;20.98;95.06;96046.41;10520467;28;1975;-77
2023/10/11 10:10:13;;;;;;;;;;;;;;;21.30;91.99;96040.19;10521270;28;2110;-75
2023/10/11 10:15:20;;;;;;;;;;;;;;;21.48;89.45;96023.63;10519162;28;1949;-75
2023/10/11 10:20:23;;;;;;;;;;;;;;;21.52;87.98;96025.38;10523845;28;1909;-75
2023/10/11 10:25:28;;;;;;;;;;;;;;;21.52;89.56;96025.38;10522315;28;1981;-74
2023/10/11 10:30:32;;;;;;;;;;;;;;;21.53;91.12;96026.94;10519604;28;1898;-76
2023/10/11 10:35:37;;;;;;;;;;;;;;;21.69;92.75;96026.28;10522233;28;2040;-75
2023/10/11 10:40:42;;;;;;;;;;;;;;;21.64;97.29;96021.88;10515746;28;4812;-75
2023/10/11 10:45:45;;;;;;;;;;;;;;;21.75;94.39;96016.75;10521920;28;1914;-75
2023/10/11 10:50:50;;;;;;;;;;;;;;;22.00;91.13;96007.41;10517390;28;1979;-76
2023/10/11 10:55:57;;;;;;;;;;;;;;;22.08;85.85;95998.31;10515154;28;1871;-77
2023/10/11 11:01:00;;;;;;;;;;;;;;;22.01;95.88;95998.09;10519708;28;1865;-75
2023/10/11 11:06:03;;;;;;;;;;;;;;;22.29;84.42;95987.28;10516453;28;2054;-75
2023/10/11 11:11:25;;;;;;;;;;;;;;;;;;10517075;28;1914;-76
2023/10/11 11:16:29;;;;;;;;;;;;;;;22.38;85.29;95973.44;10517945;28;1866;-76
2023/10/11 11:21:31;;;;;;;;;;;;;;;22.48;84.17;95963.97;10519498;28;1843;-75
2023/10/11 11:26:34;;;;;;;;;;;;;;;22.63;83.94;95969.53;10517560;28;2673;-75
2023/10/11 11:31:38;;;;;;;;;;;;;;;22.62;86.61;95964.41;10513324;28;1941;-75
2023/10/11 11:36:44;;;;;;;;;;;;;;;22.54;87.72;95957.13;10518051;28;1906;-76
2023/10/11 11:41:47;;;;;;;;;;;;;;;22.45;90.44;95946.28;10522501;28;1894;-75
2023/10/11 11:46:49;;;;;;;;;;;;;;;22.65;87.38;95942.59;10517814;28;1972;-75
2023/10/11 11:51:52;;;;;;;;;;;;;;;22.79;81.65;95944.94;10517686;28;2051;-75
2023/10/11 11:56:55;;;;;;;;;;;;;;;22.87;82.09;95940.50;10516771;28;2078;-75
2023/10/11 12:01:59;;;;;;;;;;;;;;;22.66;89.77;95930.47;10517470;28;1854;-76
2023/10/11 12:07:03;;;;;;;;;;;;;;;23.04;84.00;95926.50;10515198;28;2161;-76
2023/10/11 12:12:05;;;;;;;;;;;;;;;22.87;85.41;95913.06;10552070;28;2754;-76
2023/10/11 12:17:09;;;;;;;;;;;;;;;23.18;79.59;95907.69;10514107;28;2244;-77
2023/10/11 12:22:13;;;;;;;;;;;;;;;23.25;78.37;95914.50;10514826;28;1843;-77
2023/10/11 12:27:16;;;;;;;;;;;;;;;23.51;78.05;95905.75;10516242;28;1990;-76
2023/10/11 12:32:18;;;;;;;;;;;;;;;23.56;71.07;95900.81;10520004;28;1991;-77
2023/10/11 12:37:21;;;;;;;;;;;;;;;23.50;69.61;95891.25;10518616;28;1883;-76
2023/10/11 12:42:23;;;;;;;;;;;;;;;23.49;69.14;95897.88;10524499;28;4813;-76
2023/10/11 12:47:28;;;;;;;;;;;;;;;23.45;66.15;95891.50;10523756;28;1910;-74
2023/10/11 12:52:32;;;;;;;;;;;;;;;23.38;63.52;95888.59;10520917;28;1978;-75
2023/10/11 12:57:38;;;;;;;;;;;;;;;23.44;63.77;95889.91;10521366;28;1919;-76
2023/10/11 13:02:48;;;;;;;;;;;;;;;23.56;63.15;95889.03;10526117;28;1811;-75
2023/10/11 13:07:51;;;;;;;;;;;;;;;23.63;58.18;95890.03;10531085;28;1905;-75
2023/10/11 13:12:55;;;;;;;;;;;;;;;23.62;54.90;95887.66;10531464;28;3083;-75
2023/10/11 13:17:57;;;;;;;;;;;;;;;23.43;57.78;95883.63;10532633;28;1595;-76
2023/10/11 13:23:00;;;;;;;;;;;;;;;23.58;56.48;95882.03;10521187;28;1839;-75
2023/10/11 13:28:04;;;;;;;;;;;;;;;23.38;57.48;95878.41;10517922;28;1971;-74
2023/10/11 13:33:09;;;;;;;;;;;;;;;23.34;57.68;95871.22;10520160;28;1838;-76
2023/10/11 13:38:16;;;;;;;;;;;;;;;23.09;59.24;95876.88;10518144;28;1886;-75
2023/10/11 13:43:22;;;;;;;;;;;;;;;23.26;57.94;95864.78;10514857;28;4860;-75
2023/10/11 13:48:27;;;;;;;;;;;;;;;23.29;54.01;95864.09;10526160;28;1987;-75
2023/10/11 13:53:31;;;;;;;;;;;;;;;23.21;54.20;95862.28;10527398;28;1910;-74
2023/10/11 13:58:33;;;;;;;;;;;;;;;23.16;55.56;95855.13;10521598;28;2962;-75
2023/10/11 14:03:49;;;;;;;;;;;;;;;23.30;54.47;95846.47;10522577;28;1931;-75
2023/10/11 14:09:14;;;;;;;;;;;;;;;23.08;55.78;95833.34;10513556;28;2000;-76
2023/10/11 14:14:20;;;;;;;;;;;;;;;23.19;55.06;95843.44;10518463;28;1936;-76
2023/10/11 14:19:24;;;;;;;;;;;;;;;23.18;53.99;95833.63;10521389;28;1995;-74
2023/10/11 14:24:27;;;;;;;;;;;;;;;23.12;55.03;95831.50;10528756;28;1906;-76
2023/10/11 14:29:30;;;;;;;;;;;;;;;23.01;54.93;95824.94;10529096;28;1551;-74
2023/10/11 14:34:32;;;;;;;;;;;;;;;23.18;52.23;95813.66;10525548;28;1434;-74
2023/10/11 14:39:36;;;;;;;;;;;;;;;23.02;53.26;95816.38;10527205;28;1736;-74
2023/10/11 14:44:39;;;;;;;;;;;;;;;22.98;54.16;95812.75;10525957;28;4837;-75
2023/10/11 14:49:44;;;;;;;;;;;;;;;22.79;55.96;95807.13;10527709;28;1543;-75
2023/10/11 14:54:48;;;;;;;;;;;;;;;22.78;54.79;95800.06;10524226;28;1569;-76
2023/10/11 14:59:50;;;;;;;;;;;;;;;22.82;56.31;95800.94;10553629;27;1720;-75
2023/10/11 15:04:56;;;;;;;;;;;;;;;22.73;58.64;95803.06;10525348;28;1905;-75
2023/10/11 15:09:59;;;;;;;;;;;;;;;22.63;60.67;95804.34;10526278;28;1484;-76
2023/10/11 15:15:01;;;;;;;;;;;;;;;22.47;62.13;95809.78;10522959;28;1590;-75
2023/10/11 15:20:04;;;;;;;;;;;;;;;22.23;65.81;95807.94;10527290;28;1365;-75
2023/10/11 15:25:08;;;;;;;;;;;;;;;22.25;65.43;95815.78;10523467;28;1914;-75
2023/10/11 15:30:10;;;;;;;;;;;;;;;22.06;65.77;95819.13;10523772;28;1922;-76
2023/10/11 15:35:14;;;;;;;;;;;;;;;22.04;63.08;95818.69;10517641;28;1605;-76
2023/10/11 15:40:20;;;;;;;;;;;;;;;21.91;64.26;95817.13;10524230;28;4895;-76
2023/10/11 15:45:23;;;;;;;;;;;;;;;21.55;67.00;95825.00;10525324;28;2875;-75
2023/10/11 15:50:26;;;;;;;;;;;;;;;21.66;66.41;95828.09;10519687;28;1847;-77
2023/10/11 15:55:28;;;;;;;;;;;;;;;21.39;68.55;95832.31;10521583;28;1859;-76
2023/10/11 16:00:31;;;;;;;;;;;;;;;21.09;76.24;95828.94;10518371;28;1811;-76
2023/10/11 16:05:34;;;;;;;;;;;;;;;21.04;78.05;95834.63;10520863;28;1950;-76
2023/10/11 16:10:36;;;;;;;;;;;;;;;20.91;77.58;95835.72;10519812;28;2185;-76
2023/10/11 16:15:38;;;;;;;;;;;;;;;20.65;79.22;95836.81;10518360;28;2105;-77
2023/10/11 16:20:41;;;;;;;;;;;;;;;20.32;83.94;95833.22;10521560;28;1882;-76
2023/10/11 16:25:45;;;;;;;;;;;;;;;20.09;86.83;95839.00;10525076;28;1918;-77
2023/10/11 16:30:48;;;;;;;;;;;;;;;19.90;89.07;95838.69;10524553;28;1843;-76
2023/10/11 16:35:50;;;;;;;;;;;;;;;19.69;93.09;95844.09;10532732;28;1783;-75
2023/10/11 16:40:54;;;;;;;;;;;;;;;19.41;96.76;95852.72;10524137;28;4876;-76
2023/10/11 16:45:57;;;;;;;;;;;;;;;19.15;100.00;95838.44;10521450;28;2990;-76
2023/10/11 16:51:05;;;;;;;;;;;;;;;19.00;100.00;95847.91;10524685;28;2164;-77
2023/10/11 16:56:11;;;;;;;;;;;;;;;18.73;100.00;95849.09;10525730;28;2066;-76
2023/10/11 17:01:14;;;;;;;;;;;;;;;18.55;100.00;95850.22;10526464;28;2264;-76
2023/10/11 17:06:17;;;;;;;;;;;;;;;18.55;100.00;95847.50;10527881;28;1941;-77
2023/10/11 17:11:19;;;;;;;;;;;;;;;18.40;100.00;95845.28;10520625;28;1882;-77
2023/10/11 17:16:22;;;;;;;;;;;;;;;18.37;100.00;95847.50;10527104;28;2226;-75
2023/10/11 17:21:24;;;;;;;;;;;;;;;18.37;100.00;95852.97;10525035;28;1823;-76
2023/10/11 17:26:32;;;;;;;;;;;;;;;18.22;100.00;95855.38;10525254;28;1953;-77
2023/10/11 17:31:34;;;;;;;;;;;;;;;17.96;100.00;95844.47;10519402;28;2285;-77
2023/10/11 17:36:37;;;;;;;;;;;;;;;17.82;100.00;95859.03;10520852;28;1906;-75
2023/10/11 17:41:41;;;;;;;;;;;;;;;17.68;100.00;95858.31;10523479;28;4816;-77
2023/10/11 17:46:44;;;;;;;;;;;;;;;17.61;100.00;95860.69;10521394;28;1983;-76
2023/10/11 17:51:46;;;;;;;;;;;;;;;17.45;100.00;95857.63;10526710;28;1867;-77
2023/10/11 17:56:53;;;;;;;;;;;;;;;17.39;100.00;95863.53;10524506;28;1977;-77
2023/10/11 18:01:56;;;;;;;;;;;;;;;17.26;100.00;95868.75;10520164;28;1834;-76
2023/10/11 18:06:58;;;;;;;;;;;;;;;17.16;100.00;95874.44;10522252;28;1974;-78
2023/10/11 18:12:02;;;;;;;;;;;;;;;17.02;100.00;95865.59;10516673;28;2691;-79
2023/10/11 18:17:04;;;;;;;;;;;;;;;16.91;100.00;95869.69;10523246;28;1898;-75
2023/10/11 18:22:08;;;;;;;;;;;;;;;16.82;100.00;95874.28;10527412;28;1901;-78
2023/10/11 18:27:10;;;;;;;;;;;;;;;16.75;100.00;95859.22;10523245;28;1979;-76
2023/10/11 18:32:13;;;;;;;;;;;;;;;16.64;100.00;95874.13;10521367;28;1997;-76
2023/10/11 18:37:16;;;;;;;;;;;;;;;16.55;100.00;95862.44;10520230;28;1954;-76
2023/10/11 18:42:18;;;;;;;;;;;;;;;16.50;100.00;95870.69;10522265;28;2040;-77
2023/10/11 18:47:22;;;;;;;;;;;;;;;16.43;100.00;95870.31;10522097;28;2093;-76
2023/10/11 18:52:25;;;;;;;;;;;;;;;16.35;100.00;95860.19;10524898;28;1800;-75
2023/10/11 18:57:28;;;;;;;;;;;;;;;16.32;100.00;95855.41;10522929;28;2624;-77
2023/10/11 19:02:33;;;;;;;;;;;;;;;16.49;100.00;95858.25;10522997;28;1886;-78
2023/10/11 19:07:36;;;;;;;;;;;;;;;16.19;100.00;95859.75;10524021;28;1979;-78
2023/10/11 19:12:40;;;;;;;;;;;;;;;16.16;100.00;95852.25;10516866;28;1919;-76
2023/10/11 19:17:43;;;;;;;;;;;;;;;16.23;100.00;95852.63;10523917;28;2065;-75
2023/10/11 19:22:46;;;;;;;;;;;;;;;16.11;100.00;95846.94;10525896;28;1985;-76
2023/10/11 19:27:48;;;;;;;;;;;;;;;15.92;100.00;95836.25;10522818;28;1906;-76
2023/10/11 19:32:51;;;;;;;;;;;;;;;15.89;100.00;95837.66;10525710;28;1823;-76
2023/10/11 19:37:54;;;;;;;;;;;;;;;15.83;100.00;95836.16;10520509;28;2036;-76
2023/10/11 19:42:56;;;;;;;;;;;;;;;15.83;100.00;95832.66;10521763;28;4823;-77
2023/10/11 19:48:00;;;;;;;;;;;;;;;15.73;100.00;95825.56;10523305;28;1944;-76
2023/10/11 19:53:04;;;;;;;;;;;;;;;15.58;100.00;95837.47;10529760;28;1978;-77
2023/10/11 19:58:06;;;;;;;;;;;;;;;15.67;100.00;95830.28;10531202;28;1909;-76
2023/10/11 20:03:11;;;;;;;;;;;;;;;15.55;100.00;95823.75;10531832;28;2008;-80
2023/10/11 20:08:15;;;;;;;;;;;;;;;15.47;100.00;95819.88;10524545;28;1963;-73
2023/10/11 20:13:18;;;;;;;;;;;;;;;15.49;100.00;95817.66;10525617;28;1895;-76
2023/10/11 20:18:20;;;;;;;;;;;;;;;15.40;100.00;95824.91;10533146;28;1835;-75
2023/10/11 20:23:23;;;;;;;;;;;;;;;15.27;100.00;95822.97;10523067;28;1886;-75
2023/10/11 20:28:25;;;;;;;;;;;;;;;15.13;100.00;95817.56;10524569;28;2664;-75
2023/10/11 20:33:29;;;;;;;;;;;;;;;15.06;100.00;95822.59;10523930;28;1882;-76
2023/10/11 20:38:33;;;;;;;;;;;;;;;14.92;100.00;95821.78;10523676;28;2057;-71
2023/10/11 20:43:35;;;;;;;;;;;;;;;14.92;100.00;95824.50;10527246;28;4999;-71
2023/10/11 20:48:37;;;;;;;;;;;;;;;14.91;100.00;95829.09;10524949;28;1968;-72
2023/10/11 20:53:40;;;;;;;;;;;;;;;14.73;100.00;95843.50;10519253;28;1947;-75
2023/10/11 20:58:54;;;;;;;;;;;;;;;14.57;100.00;95830.25;10521612;28;1772;-71
2023/10/11 21:03:57;;;;;;;;;;;;;;;14.49;100.00;95836.31;10521608;28;1839;-74
2023/10/11 21:09:02;;;;;;;;;;;;;;;14.40;100.00;95829.97;10529086;28;1969;-73
2023/10/11 21:14:05;;;;;;;;;;;;;;;14.36;100.00;95833.56;10524964;28;2588;-74
2023/10/11 21:19:08;;;;;;;;;;;;;;;14.36;100.00;95828.94;10523912;28;1910;-74
2023/10/11 21:24:11;;;;;;;;;;;;;;;14.38;100.00;95829.47;10523910;28;1890;-75
2023/10/11 21:29:13;;;;;;;;;;;;;;;14.39;100.00;95833.78;10524762;28;1906;-76
2023/10/11 21:34:17;;;;;;;;;;;;;;;14.55;100.00;95827.03;10528164;28;1831;-74
2023/10/11 21:39:19;;;;;;;;;;;;;;;14.47;100.00;95822.31;10526247;28;1803;-73
2023/10/11 21:44:23;;;;;;;;;;;;;;;14.33;100.00;95819.53;10483748;28;1064458;-75
2023/10/11 21:49:26;;;;;;;;;;;;;;;14.31;100.00;95820.91;10525814;28;1917;-73
2023/10/11 21:54:29;;;;;;;;;;;;;;;14.34;100.00;95821.13;10523002;28;1920;-73
2023/10/11 21:59:32;;;;;;;;;;;;;;;14.27;100.00;95818.00;10521514;28;2501;-73
2023/10/11 22:04:38;;;;;;;;;;;;;;;14.31;100.00;95816.34;10526224;28;1914;-72
2023/10/11 22:09:41;;;;;;;;;;;;;;;14.28;100.00;95810.69;10528719;28;1979;-73
2023/10/11 22:14:44;;;;;;;;;;;;;;;14.16;100.00;95813.88;10522079;28;1941;-73
2023/10/11 22:19:47;;;;;;;;;;;;;;;14.08;100.00;95801.03;10527581;28;1890;-73
2023/10/11 22:24:52;;;;;;;;;;;;;;;13.97;100.00;95811.19;10519804;28;1837;-75
2023/10/11 22:29:55;;;;;;;;;;;;;;;13.85;100.00;95808.13;10523277;28;1974;-73
2023/10/11 22:34:59;;;;;;;;;;;;;;;13.76;100.00;95809.91;10522691;28;1834;-74
2023/10/11 22:40:02;;;;;;;;;;;;;;;13.67;100.00;95806.22;10525601;28;1914;-74
2023/10/11 22:45:05;;;;;;;;;;;;;;;13.64;100.00;95812.22;10525083;28;5000;-74
2023/10/11 22:50:07;;;;;;;;;;;;;;;13.61;100.00;95812.81;10524335;28;1914;-73
2023/10/11 22:55:09;;;;;;;;;;;;;;;13.52;100.00;95807.25;10530420;28;1783;-73
2023/10/11 23:00:17;;;;;;;;;;;;;;;13.60;100.00;95819.28;10525232;28;1950;-73
2023/10/11 23:05:20;;;;;;;;;;;;;;;13.49;100.00;95811.34;10524186;28;1838;-74
2023/10/11 23:10:23;;;;;;;;;;;;;;;13.45;100.00;95812.22;10522302;28;1938;-74
2023/10/11 23:15:41;;;;;;;;;;;;;;;13.43;100.00;95807.13;10518584;28;2008;-75
2023/10/11 23:20:46;;;;;;;;;;;;;;;13.48;100.00;95809.72;10520637;28;1831;-74
2023/10/11 23:25:49;;;;;;;;;;;;;;;13.42;100.00;95821.72;10525142;28;1898;-72
2023/10/11 23:30:54;;;;;;;;;;;;;;;13.43;100.00;95817.91;10515405;28;2704;-74
2023/10/11 23:36:01;;;;;;;;;;;;;;;13.41;100.00;95820.09;10520235;28;1901;-73
2023/10/11 23:41:17;;;;;;;;;;;;;;;13.43;100.00;95820.63;10518906;28;4911;-74
2023/10/11 23:46:25;;;;;;;;;;;;;;;13.41;100.00;95830.88;10523545;28;2089;-74
2023/10/11 23:51:29;;;;;;;;;;;;;;;13.34;100.00;95835.03;10521607;28;1914;-74
2023/10/11 23:56:32;;;;;;;;;;;;;;;13.29;100.00;95835.91;10523466;28;1827;-74
